Time;durP1;ratioP1;P1;durP2;ratioP2;P2;SDS_P1;SDS_P2;PMS_P1;PMS_P2;Temp;Humidity;BMP_temperature;BMP_pressure;BME280_temperature;BME280_humidity;BME280_pressure;Samples;Min_cycle;Max_cycle;Signal;HPM_P1;HPM_P2
2021/12/17 00:04:37;;;;;;;18.10;8.25;;;;;;;;;;5027934;28;20114;-57
2021/12/17 00:07:04;;;;;;;17.20;6.47;;;;;;;;;;5018074;28;20033;-56
2021/12/17 00:09:30;;;;;;;17.52;6.68;;;;;;;;;;5025370;28;20100;-55
2021/12/17 00:11:56;;;;;;;20.63;7.78;;;;;;;;;;5046452;28;20033;-57
2021/12/17 00:14:27;;;;;;;15.27;6.13;;;;;;;;;;5028525;28;20133;-55
2021/12/17 00:16:54;;;;;;;17.15;8.27;;;;;;;;;;5029029;28;20036;-52
2021/12/17 00:20:22;;;;;;;17.52;6.60;;;;;;;;;;5036884;28;20033;-56
2021/12/17 00:48:22;;;;;;;16.60;6.03;;;;;;;;;;5031495;28;20036;-58
2021/12/17 00:49:45;;;;;;;23.63;6.25;;;;;;;;;;5030690;28;20087;-56
2021/12/17 00:52:11;;;;;;;15.88;7.07;;;;;;;;;;5028540;28;20025;-54
2021/12/17 00:54:40;;;;;;;21.25;6.63;;;;;;;;;;5033111;28;20021;-55
2021/12/17 00:57:06;;;;;;;20.73;7.15;;;;;;;;;;5038536;28;20037;-57
2021/12/17 00:59:32;;;;;;;21.00;7.13;;;;;;;;;;5033996;28;20036;-55
2021/12/17 01:02:00;;;;;;;17.55;6.80;;;;;;;;;;5019844;28;20113;-56
2021/12/17 01:04:26;;;;;;;22.80;7.05;;;;;;;;;;5036115;28;20053;-56
2021/12/17 01:06:52;;;;;;;17.50;7.35;;;;;;;;;;5019616;28;20068;-55
2021/12/17 01:09:19;;;;;;;16.98;7.90;;;;;;;;;;5029164;28;20032;-57
2021/12/17 01:11:45;;;;;;;22.70;7.60;;;;;;;;;;5031259;28;20040;-53
2021/12/17 01:14:12;;;;;;;16.25;7.93;;;;;;;;;;5030976;28;20034;-53
2021/12/17 01:16:38;;;;;;;17.73;6.93;;;;;;;;;;5024507;28;20030;-56
2021/12/17 01:19:24;;;;;;;17.05;6.78;;;;;;;;;;5031453;28;20027;-55
2021/12/17 01:22:14;;;;;;;20.67;6.95;;;;;;;;;;5021896;28;20033;-57
2021/12/17 01:24:47;;;;;;;15.50;7.30;;;;;;;;;;5023025;28;20385;-58
2021/12/17 01:35:30;;;;;;;20.92;7.38;;;;;;;;;;5024775;28;20060;-54
2021/12/17 01:43:15;;;;;;;18.60;7.07;;;;;;;;;;5024593;28;20528;-53
2021/12/17 01:45:42;;;;;;;16.85;5.97;;;;;;;;;;5024133;28;20025;-54
2021/12/17 01:48:11;;;;;;;16.70;6.63;;;;;;;;;;5027716;28;20044;-56
2021/12/17 02:01:19;;;;;;;15.73;5.45;;;;;;;;;;5029911;28;20036;-55
2021/12/17 02:03:45;;;;;;;13.07;5.00;;;;;;;;;;5026637;28;20034;-56
2021/12/17 02:06:11;;;;;;;16.38;5.53;;;;;;;;;;5026765;28;20036;-56
2021/12/17 02:08:37;;;;;;;15.68;6.88;;;;;;;;;;5034466;28;20458;-57
2021/12/17 02:22:36;;;;;;;18.02;6.00;;;;;;;;;;5018890;28;20423;-54
2021/12/17 02:33:01;;;;;;;19.88;6.00;;;;;;;;;;5030615;28;20464;-56
2021/12/17 02:37:54;;;;;;;20.52;6.10;;;;;;;;;;5023843;28;20033;-56
2021/12/17 02:45:57;;;;;;;19.90;5.95;;;;;;;;;;5017684;28;20803;-58
2021/12/17 02:48:24;;;;;;;16.42;7.13;;;;;;;;;;5034867;28;20052;-56
2021/12/17 02:50:52;;;;;;;17.45;6.32;;;;;;;;;;5032691;28;20032;-57
2021/12/17 02:53:19;;;;;;;20.52;6.22;;;;;;;;;;5028192;28;20033;-54
2021/12/17 02:55:48;;;;;;;18.75;7.25;;;;;;;;;;5028665;28;20473;-54
2021/12/17 02:58:15;;;;;;;16.77;6.40;;;;;;;;;;5033019;28;20021;-56
2021/12/17 03:00:42;;;;;;;16.63;5.97;;;;;;;;;;5031988;28;20036;-54
2021/12/17 03:03:09;;;;;;;24.23;6.13;;;;;;;;;;5026285;28;20556;-55
2021/12/17 03:05:38;;;;;;;16.15;6.35;;;;;;;;;;5033409;28;20030;-54
2021/12/17 03:08:07;;;;;;;14.93;5.88;;;;;;;;;;5033301;28;20474;-58
2021/12/17 03:10:33;;;;;;;19.30;5.50;;;;;;;;;;5026127;28;20025;-56
2021/12/17 03:13:02;;;;;;;20.48;6.50;;;;;;;;;;5028936;28;20466;-55
2021/12/17 03:15:40;;;;;;;17.90;6.47;;;;;;;;;;5031510;28;20115;-53
2021/12/17 03:25:54;;;;;;;19.40;6.55;;;;;;;;;;5032910;28;20029;-53
2021/12/17 03:28:20;;;;;;;20.20;7.00;;;;;;;;;;5036230;28;20151;-56
2021/12/17 03:30:46;;;;;;;15.85;6.30;;;;;;;;;;5027504;28;20512;-53
2021/12/17 03:33:12;;;;;;;20.15;7.05;;;;;;;;;;5027330;28;20040;-52
2021/12/17 03:35:38;;;;;;;15.25;6.22;;;;;;;;;;5033783;28;20437;-55
2021/12/17 03:38:04;;;;;;;16.27;5.82;;;;;;;;;;5035433;28;20040;-54
2021/12/17 03:40:33;;;;;;;14.07;6.45;;;;;;;;;;5031031;28;20025;-53
2021/12/17 03:43:03;;;;;;;18.15;5.88;;;;;;;;;;5033094;28;20091;-54
2021/12/17 03:45:29;;;;;;;16.35;6.05;;;;;;;;;;5041163;28;20029;-55
2021/12/17 03:47:55;;;;;;;17.48;6.40;;;;;;;;;;5033051;28;20466;-54
2021/12/17 03:50:22;;;;;;;18.40;6.10;;;;;;;;;;5040611;28;20029;-55
2021/12/17 03:52:48;;;;;;;17.60;6.25;;;;;;;;;;5024478;28;20056;-53
2021/12/17 03:55:14;;;;;;;13.90;5.68;;;;;;;;;;5023562;28;20022;-53
2021/12/17 03:57:40;;;;;;;15.93;6.25;;;;;;;;;;5021841;28;20033;-56
2021/12/17 04:00:07;;;;;;;20.25;7.38;;;;;;;;;;5032270;28;20469;-57
2021/12/17 04:02:33;;;;;;;10.90;4.75;;;;;;;;;;5028362;28;20116;-56
2021/12/17 04:04:59;;;;;;;11.93;6.00;;;;;;;;;;5020682;28;20466;-57
2021/12/17 04:07:25;;;;;;;19.35;6.32;;;;;;;;;;5034202;28;20049;-57
2021/12/17 04:09:51;;;;;;;22.52;7.90;;;;;;;;;;5023977;28;20107;-58
2021/12/17 04:12:20;;;;;;;24.58;6.50;;;;;;;;;;5032716;28;20374;-55
2021/12/17 04:14:48;;;;;;;19.75;6.15;;;;;;;;;;5024571;28;20048;-57
2021/12/17 04:17:22;;;;;;;23.73;6.57;;;;;;;;;;5033238;28;20057;-56
2021/12/17 04:19:48;;;;;;;16.27;7.18;;;;;;;;;;5033002;28;20028;-57
2021/12/17 04:22:14;;;;;;;17.60;6.70;;;;;;;;;;5030794;28;20080;-54
2021/12/17 04:24:40;;;;;;;27.42;6.63;;;;;;;;;;5032659;28;20490;-56
2021/12/17 04:27:07;;;;;;;15.13;6.63;;;;;;;;;;5030128;28;20079;-58
2021/12/17 04:29:39;;;;;;;16.48;6.65;;;;;;;;;;5030832;28;20427;-58
2021/12/17 04:32:05;;;;;;;28.07;7.30;;;;;;;;;;5024489;28;20109;-56
2021/12/17 04:34:31;;;;;;;19.27;7.10;;;;;;;;;;5034803;28;20528;-56
2021/12/17 04:36:57;;;;;;;17.05;6.45;;;;;;;;;;5032625;28;20061;-53
2021/12/17 04:39:24;;;;;;;20.30;5.70;;;;;;;;;;5036733;28;20492;-56
2021/12/17 04:41:58;;;;;;;16.95;6.55;;;;;;;;;;5029172;28;20034;-58
2021/12/17 04:44:31;;;;;;;16.00;6.00;;;;;;;;;;5032926;28;20033;-53
2021/12/17 04:57:49;;;;;;;18.38;5.93;;;;;;;;;;5031712;28;20148;-55
2021/12/17 05:00:18;;;;;;;18.60;6.00;;;;;;;;;;5031424;28;20076;-53
2021/12/17 05:02:47;;;;;;;20.67;5.93;;;;;;;;;;5029270;28;20030;-56
2021/12/17 05:05:14;;;;;;;14.10;5.07;;;;;;;;;;5026151;28;20029;-58
2021/12/17 05:07:44;;;;;;;22.10;6.35;;;;;;;;;;5032058;28;20088;-57
2021/12/17 05:10:45;;;;;;;15.32;6.18;;;;;;;;;;5023996;28;20465;-52
2021/12/17 05:19:30;;;;;;;19.95;5.75;;;;;;;;;;5024918;28;20061;-56
2021/12/17 05:21:28;;;;;;;22.38;5.68;;;;;;;;;;5025793;28;20049;-56
2021/12/17 05:23:53;;;;;;;11.52;5.90;;;;;;;;;;5023261;28;20029;-55
2021/12/17 05:26:20;;;;;;;10.05;5.88;;;;;;;;;;5028156;28;20033;-58
2021/12/17 05:28:47;;;;;;;18.50;6.20;;;;;;;;;;5030725;28;20026;-56
2021/12/17 05:31:15;;;;;;;19.30;6.45;;;;;;;;;;5023170;28;20389;-56
2021/12/17 05:33:41;;;;;;;15.10;5.25;;;;;;;;;;5029993;28;20041;-57
2021/12/17 05:36:07;;;;;;;16.02;5.80;;;;;;;;;;5029086;28;20084;-52
2021/12/17 05:38:33;;;;;;;11.75;5.63;;;;;;;;;;5027976;28;20034;-54
2021/12/17 05:40:59;;;;;;;13.27;5.70;;;;;;;;;;5029856;28;20032;-56
2021/12/17 05:43:25;;;;;;;15.95;5.10;;;;;;;;;;5026605;28;20055;-56
2021/12/17 05:48:24;;;;;;;19.05;5.38;;;;;;;;;;5029453;28;20121;-51
2021/12/17 05:50:52;;;;;;;18.27;6.05;;;;;;;;;;5029802;28;20095;-55
2021/12/17 05:53:19;;;;;;;18.40;5.72;;;;;;;;;;5031722;28;20462;-56
2021/12/17 05:55:45;;;;;;;13.07;5.40;;;;;;;;;;5023951;28;20035;-54
2021/12/17 05:58:11;;;;;;;21.08;5.97;;;;;;;;;;5025431;28;20026;-57
2021/12/17 06:00:39;;;;;;;13.35;4.85;;;;;;;;;;5028667;28;20033;-55
2021/12/17 06:03:05;;;;;;;18.63;5.32;;;;;;;;;;5026631;28;20048;-56
2021/12/17 06:05:32;;;;;;;23.52;6.60;;;;;;;;;;5027767;28;20029;-56
2021/12/17 06:07:59;;;;;;;15.38;4.80;;;;;;;;;;5025785;28;20129;-54
2021/12/17 06:10:25;;;;;;;22.65;5.28;;;;;;;;;;5021558;28;20120;-56
2021/12/17 06:12:51;;;;;;;12.85;5.65;;;;;;;;;;5026850;28;20029;-57
2021/12/17 06:15:18;;;;;;;14.93;4.90;;;;;;;;;;5020145;28;20038;-57
2021/12/17 06:17:44;;;;;;;17.27;4.97;;;;;;;;;;5034377;28;20056;-57
2021/12/17 06:20:11;;;;;;;13.70;5.90;;;;;;;;;;5033037;28;20025;-55
2021/12/17 06:22:37;;;;;;;14.60;4.88;;;;;;;;;;5021314;28;20082;-56
2021/12/17 06:25:04;;;;;;;12.68;5.38;;;;;;;;;;5027997;28;20078;-56
2021/12/17 06:27:30;;;;;;;12.15;4.90;;;;;;;;;;5022964;28;20079;-58
2021/12/17 06:29:57;;;;;;;10.77;4.15;;;;;;;;;;5026546;28;20069;-57
2021/12/17 06:32:23;;;;;;;17.17;4.80;;;;;;;;;;5032092;28;20033;-55
2021/12/17 06:34:49;;;;;;;15.93;4.55;;;;;;;;;;5030414;28;20057;-55
2021/12/17 06:37:15;;;;;;;12.82;4.32;;;;;;;;;;5035405;28;20103;-55
2021/12/17 06:39:41;;;;;;;16.38;4.90;;;;;;;;;;5030883;28;20119;-54
2021/12/17 06:42:07;;;;;;;19.50;5.05;;;;;;;;;;5033223;28;20044;-56
2021/12/17 06:44:33;;;;;;;17.17;4.38;;;;;;;;;;5026655;28;20030;-57
2021/12/17 06:47:05;;;;;;;15.15;4.82;;;;;;;;;;5029003;28;20581;-57
2021/12/17 06:49:48;;;;;;;10.30;4.07;;;;;;;;;;5026417;28;20057;-54
2021/12/17 06:58:34;;;;;;;17.30;4.43;;;;;;;;;;5030652;28;20504;-55
2021/12/17 07:01:05;;;;;;;14.88;4.25;;;;;;;;;;5026100;28;20775;-58
2021/12/17 07:06:35;;;;;;;19.27;5.00;;;;;;;;;;5035410;28;20087;-55
2021/12/17 07:10:14;;;;;;;17.08;4.00;;;;;;;;;;5028944;28;20056;-58
2021/12/17 07:17:23;;;;;;;10.35;3.58;;;;;;;;;;5032269;28;20044;-57
2021/12/17 07:20:42;;;;;;;14.32;4.43;;;;;;;;;;5030889;28;20763;-58
2021/12/17 07:22:50;;;;;;;10.40;4.10;;;;;;;;;;5030404;28;20481;-57
2021/12/17 07:28:11;;;;;;;12.25;4.28;;;;;;;;;;5032547;28;20100;-58
2021/12/17 07:33:46;;;;;;;14.15;4.40;;;;;;;;;;5035555;28;20040;-56
2021/12/17 07:36:17;;;;;;;14.73;4.30;;;;;;;;;;5031692;28;20056;-57
2021/12/17 07:38:48;;;;;;;14.30;3.88;;;;;;;;;;5032633;28;20022;-58
2021/12/17 07:41:15;;;;;;;14.57;4.13;;;;;;;;;;5023323;28;20391;-58
2021/12/17 07:43:51;;;;;;;16.65;4.75;;;;;;;;;;5033308;28;20018;-57
2021/12/17 07:46:18;;;;;;;14.85;4.38;;;;;;;;;;5035158;28;20044;-57
2021/12/17 07:48:43;;;;;;;14.55;4.53;;;;;;;;;;5030686;28;20026;-58
2021/12/17 07:51:11;;;;;;;10.38;4.10;;;;;;;;;;5032905;28;20804;-56
2021/12/17 07:53:38;;;;;;;15.63;4.38;;;;;;;;;;5034545;28;20132;-58
2021/12/17 07:56:05;;;;;;;13.50;4.43;;;;;;;;;;5026279;28;20026;-56
2021/12/17 07:58:31;;;;;;;9.80;3.72;;;;;;;;;;5033424;28;20045;-55
2021/12/17 08:00:58;;;;;;;10.32;4.25;;;;;;;;;;5032542;28;20080;-57
2021/12/17 08:03:24;;;;;;;13.10;4.60;;;;;;;;;;5032639;28;20026;-57
2021/12/17 08:05:51;;;;;;;15.88;5.13;;;;;;;;;;5033255;28;20044;-57
2021/12/17 08:08:17;;;;;;;17.63;5.00;;;;;;;;;;5028198;28;20034;-55
2021/12/17 08:10:44;;;;;;;13.82;5.07;;;;;;;;;;5028135;28;20598;-56
2021/12/17 08:13:17;;;;;;;12.95;3.92;;;;;;;;;;5029063;28;20038;-55
2021/12/17 08:15:52;;;;;;;20.85;4.47;;;;;;;;;;5030093;28;20113;-56
2021/12/17 08:18:30;;;;;;;15.88;4.05;;;;;;;;;;5028067;28;20419;-53
2021/12/17 08:24:33;;;;;;;9.65;4.38;;;;;;;;;;5021567;28;20519;-56
2021/12/17 08:26:52;;;;;;;15.50;4.55;;;;;;;;;;5024850;28;20036;-56
2021/12/17 08:29:32;;;;;;;14.93;4.30;;;;;;;;;;5027868;28;20112;-57
2021/12/17 08:31:58;;;;;;;13.75;3.92;;;;;;;;;;5027567;28;20035;-57
2021/12/17 08:34:24;;;;;;;8.32;3.17;;;;;;;;;;5036256;28;20164;-59
2021/12/17 08:36:50;;;;;;;12.18;4.07;;;;;;;;;;5019122;28;20481;-56
2021/12/17 08:39:16;;;;;;;13.57;3.33;;;;;;;;;;5022084;28;20036;-58
2021/12/17 08:41:42;;;;;;;15.40;3.63;;;;;;;;;;5025607;28;20136;-57
2021/12/17 08:44:10;;;;;;;11.07;4.65;;;;;;;;;;5023910;28;20046;-57
2021/12/17 08:46:36;;;;;;;9.25;4.10;;;;;;;;;;5028469;28;20034;-57
2021/12/17 08:49:03;;;;;;;12.02;3.85;;;;;;;;;;5028912;28;20035;-57
2021/12/17 08:51:30;;;;;;;15.55;4.63;;;;;;;;;;5025670;28;20029;-55
2021/12/17 08:53:56;;;;;;;14.77;4.15;;;;;;;;;;5030781;28;20047;-56
2021/12/17 08:56:23;;;;;;;14.15;4.18;;;;;;;;;;5021031;28;20116;-57
2021/12/17 08:58:53;;;;;;;9.82;3.22;;;;;;;;;;5022251;28;20029;-57
2021/12/17 09:01:19;;;;;;;9.95;3.92;;;;;;;;;;5028963;28;20163;-57
2021/12/17 09:03:47;;;;;;;14.55;3.75;;;;;;;;;;5023151;28;20031;-56
2021/12/17 09:06:13;;;;;;;7.55;3.20;;;;;;;;;;5026822;28;20139;-55
2021/12/17 09:08:38;;;;;;;9.48;3.28;;;;;;;;;;5030141;28;20044;-57
2021/12/17 09:11:04;;;;;;;14.77;4.20;;;;;;;;;;5027538;28;20405;-55
2021/12/17 09:13:30;;;;;;;15.82;3.10;;;;;;;;;;5032012;28;20110;-57
2021/12/17 09:15:58;;;;;;;13.38;3.47;;;;;;;;;;5025614;28;20037;-56
2021/12/17 09:18:24;;;;;;;12.32;3.05;;;;;;;;;;5022029;28;20025;-57
2021/12/17 09:20:50;;;;;;;10.15;3.97;;;;;;;;;;5028052;28;20105;-57
2021/12/17 09:23:16;;;;;;;11.57;3.30;;;;;;;;;;5029643;28;20083;-56
2021/12/17 09:25:43;;;;;;;12.10;3.75;;;;;;;;;;5024211;28;20120;-56
2021/12/17 09:28:09;;;;;;;14.95;3.60;;;;;;;;;;5020545;28;20092;-56
2021/12/17 09:30:35;;;;;;;10.88;3.17;;;;;;;;;;5022383;28;20026;-58
2021/12/17 09:33:01;;;;;;;11.60;3.90;;;;;;;;;;5021752;28;20421;-56
2021/12/17 09:35:27;;;;;;;15.15;3.72;;;;;;;;;;5022752;28;20057;-54
2021/12/17 09:37:54;;;;;;;9.32;3.33;;;;;;;;;;5020536;28;20052;-57
2021/12/17 09:40:19;;;;;;;12.35;3.50;;;;;;;;;;5013949;28;20034;-57
2021/12/17 09:42:46;;;;;;;14.57;3.85;;;;;;;;;;5026558;28;20035;-56
2021/12/17 09:45:13;;;;;;;7.95;2.78;;;;;;;;;;5021128;28;20034;-56
2021/12/17 09:47:39;;;;;;;10.40;3.13;;;;;;;;;;5021683;28;20195;-54
2021/12/17 09:50:07;;;;;;;9.10;3.22;;;;;;;;;;5019560;28;20121;-57
2021/12/17 09:52:33;;;;;;;13.32;3.25;;;;;;;;;;5024210;28;20036;-55
2021/12/17 09:55:00;;;;;;;9.45;3.47;;;;;;;;;;5018957;28;20148;-56
2021/12/17 09:57:26;;;;;;;9.57;3.22;;;;;;;;;;5024190;28;20033;-52
2021/12/17 09:59:53;;;;;;;6.57;2.63;;;;;;;;;;5019875;28;20041;-56
2021/12/17 10:02:19;;;;;;;13.02;3.88;;;;;;;;;;5019229;28;20150;-55
2021/12/17 10:04:45;;;;;;;8.85;3.45;;;;;;;;;;5019009;28;20038;-54
2021/12/17 10:07:31;;;;;;;12.90;3.45;;;;;;;;;;5025430;28;20024;-53
2021/12/17 10:09:59;;;;;;;13.25;2.92;;;;;;;;;;5018220;28;20486;-51
2021/12/17 10:12:27;;;;;;;6.45;2.53;;;;;;;;;;5031084;28;20037;-52
2021/12/17 10:15:07;;;;;;;4.47;2.40;;;;;;;;;;5033195;28;20025;-54
2021/12/17 10:17:34;;;;;;;6.10;3.22;;;;;;;;;;5028702;28;20041;-54
2021/12/17 10:20:01;;;;;;;9.10;2.58;;;;;;;;;;5035281;28;20040;-56
2021/12/17 10:22:29;;;;;;;6.30;2.42;;;;;;;;;;5033661;28;20033;-56
2021/12/17 10:24:59;;;;;;;8.90;2.67;;;;;;;;;;5036663;28;20024;-56
2021/12/17 10:27:28;;;;;;;12.73;3.45;;;;;;;;;;5021376;28;20544;-55
2021/12/17 10:29:55;;;;;;;11.02;3.22;;;;;;;;;;5024525;28;20036;-52
2021/12/17 10:32:22;;;;;;;5.85;2.35;;;;;;;;;;5026417;28;20038;-55
2021/12/17 10:35:01;;;;;;;7.88;2.53;;;;;;;;;;5036685;28;20045;-54
2021/12/17 10:37:34;;;;;;;11.48;2.33;;;;;;;;;;5031270;28;20037;-54
2021/12/17 10:40:00;;;;;;;11.13;3.17;;;;;;;;;;5026573;28;20037;-51
2021/12/17 10:42:37;;;;;;;7.68;2.17;;;;;;;;;;5025338;28;20116;-54
2021/12/17 10:45:10;;;;;;;11.93;3.17;;;;;;;;;;5029515;28;20026;-55
2021/12/17 10:47:38;;;;;;;10.93;2.13;;;;;;;;;;5029458;28;20479;-55
2021/12/17 10:50:04;;;;;;;8.18;2.20;;;;;;;;;;5029848;28;20028;-52
2021/12/17 10:52:40;;;;;;;9.07;2.25;;;;;;;;;;5025940;28;20445;-57
2021/12/17 10:55:08;;;;;;;11.32;2.92;;;;;;;;;;5031221;28;20034;-56
2021/12/17 10:57:34;;;;;;;13.55;3.30;;;;;;;;;;5032731;28;20044;-54
2021/12/17 11:00:01;;;;;;;7.90;2.67;;;;;;;;;;5027590;28;20025;-55
2021/12/17 11:02:33;;;;;;;9.75;2.53;;;;;;;;;;5031753;28;20374;-56
2021/12/17 11:05:09;;;;;;;9.02;2.50;;;;;;;;;;5028204;28;20034;-56
2021/12/17 11:07:38;;;;;;;11.25;3.08;;;;;;;;;;5024978;28;20045;-57
2021/12/17 11:10:04;;;;;;;16.85;3.05;;;;;;;;;;5033323;28;20036;-57
2021/12/17 11:12:32;;;;;;;5.82;1.92;;;;;;;;;;5031356;28;20034;-58
2021/12/17 11:15:11;;;;;;;8.68;2.50;;;;;;;;;;5028964;28;20029;-57
2021/12/17 11:17:38;;;;;;;6.43;2.45;;;;;;;;;;5035053;28;20390;-57
2021/12/17 11:20:11;;;;;;;5.30;2.38;;;;;;;;;;5026652;28;20025;-57
2021/12/17 11:22:37;;;;;;;;;;;;;;;;;;5027813;28;20061;-56
2021/12/17 11:25:03;;;;;;;8.48;2.67;;;;;;;;;;5023971;28;19990;-57
2021/12/17 11:27:30;;;;;;;9.45;2.47;;;;;;;;;;5030840;28;20736;-56
2021/12/17 11:29:56;;;;;;;11.45;2.78;;;;;;;;;;5027843;28;20021;-57
2021/12/17 11:32:22;;;;;;;13.75;3.13;;;;;;;;;;5029526;28;20152;-57
2021/12/17 11:34:48;;;;;;;6.35;2.35;;;;;;;;;;5026622;28;20057;-57
2021/12/17 11:37:15;;;;;;;14.27;3.25;;;;;;;;;;5024552;28;20367;-57
2021/12/17 11:39:42;;;;;;;7.63;2.28;;;;;;;;;;5018809;28;20105;-57
2021/12/17 11:42:19;;;;;;;9.57;2.60;;;;;;;;;;5027008;28;20035;-53
2021/12/17 11:44:53;;;;;;;10.85;2.92;;;;;;;;;;5018985;28;20033;-56
2021/12/17 11:47:20;;;;;;;7.57;2.30;;;;;;;;;;5024718;28;20026;-56
2021/12/17 11:49:49;;;;;;;10.10;2.47;;;;;;;;;;5021974;28;20482;-57
2021/12/17 11:52:16;;;;;;;17.00;3.13;;;;;;;;;;5016342;28;20064;-57
2021/12/17 11:54:42;;;;;;;9.32;2.65;;;;;;;;;;5019176;28;20035;-55
2021/12/17 11:57:09;;;;;;;6.32;2.97;;;;;;;;;;5034704;28;20029;-57
2021/12/17 11:59:37;;;;;;;6.95;2.13;;;;;;;;;;5029715;28;20113;-53
2021/12/17 12:02:21;;;;;;;8.77;2.53;;;;;;;;;;5027429;28;20349;-56
2021/12/17 12:04:49;;;;;;;8.35;2.92;;;;;;;;;;5027679;28;20082;-55
2021/12/17 12:07:33;;;;;;;16.40;3.45;;;;;;;;;;5030313;28;20030;-53
2021/12/17 12:09:59;;;;;;;9.18;2.50;;;;;;;;;;5028975;28;20022;-55
2021/12/17 12:12:25;;;;;;;13.30;2.60;;;;;;;;;;5032064;28;20034;-54
2021/12/17 12:14:51;;;;;;;5.43;2.22;;;;;;;;;;5031324;28;20405;-55
2021/12/17 12:17:52;;;;;;;9.95;2.38;;;;;;;;;;5026574;28;20046;-56
2021/12/17 12:20:36;;;;;;;10.43;3.05;;;;;;;;;;5030511;28;20091;-54
2021/12/17 12:23:15;;;;;;;13.27;4.70;;;;;;;;;;5029658;28;20038;-56
2021/12/17 12:25:42;;;;;;;7.07;2.58;;;;;;;;;;5023978;28;20057;-57
2021/12/17 12:28:08;;;;;;;7.50;2.60;;;;;;;;;;5027421;28;20053;-56
2021/12/17 12:30:38;;;;;;;6.80;3.05;;;;;;;;;;5024798;28;20022;-55
2021/12/17 12:33:05;;;;;;;10.15;2.72;;;;;;;;;;5023915;28;20113;-56
2021/12/17 12:35:32;;;;;;;9.00;2.42;;;;;;;;;;5027726;28;20132;-57
2021/12/17 12:38:14;;;;;;;10.05;2.70;;;;;;;;;;5029656;28;20073;-57
2021/12/17 12:40:45;;;;;;;10.05;2.67;;;;;;;;;;5025083;28;20042;-57
2021/12/17 12:43:30;;;;;;;5.63;2.40;;;;;;;;;;5024459;28;20825;-53
2021/12/17 12:45:56;;;;;;;11.90;2.78;;;;;;;;;;5029733;28;20030;-56
2021/12/17 12:48:39;;;;;;;16.20;2.55;;;;;;;;;;5027921;28;20369;-55
2021/12/17 12:51:15;;;;;;;9.70;2.40;;;;;;;;;;5019739;28;20518;-55
2021/12/17 12:53:46;;;;;;;8.88;2.55;;;;;;;;;;5029915;28;20264;-57
2021/12/17 12:56:16;;;;;;;8.02;2.53;;;;;;;;;;5023966;28;20386;-54
2021/12/17 12:58:45;;;;;;;6.28;2.55;;;;;;;;;;5027228;28;20037;-53
2021/12/17 13:01:13;;;;;;;7.38;2.00;;;;;;;;;;5022814;28;20033;-56
2021/12/17 13:03:39;;;;;;;7.03;2.45;;;;;;;;;;5029093;28;20112;-56
2021/12/17 13:06:06;;;;;;;8.13;2.40;;;;;;;;;;5021324;28;20121;-56
2021/12/17 13:08:33;;;;;;;5.68;2.00;;;;;;;;;;5030492;28;20084;-57
2021/12/17 13:11:01;;;;;;;4.50;2.05;;;;;;;;;;5031829;28;20025;-54
2021/12/17 13:13:34;;;;;;;11.50;2.97;;;;;;;;;;5024499;28;20112;-53
2021/12/17 13:16:18;;;;;;;8.27;3.05;;;;;;;;;;5033974;28;20476;-55
2021/12/17 13:24:10;;;;;;;7.00;2.10;;;;;;;;;;5024178;28;20459;-56
2021/12/17 13:26:37;;;;;;;6.53;1.77;;;;;;;;;;5019179;28;20466;-54
2021/12/17 13:29:06;;;;;;;8.65;2.25;;;;;;;;;;5029498;28;20115;-58
2021/12/17 13:31:43;;;;;;;11.18;2.35;;;;;;;;;;5024526;28;20037;-55
2021/12/17 13:34:29;;;;;;;7.97;2.05;;;;;;;;;;5026771;28;20053;-55
2021/12/17 13:37:16;;;;;;;5.82;2.20;;;;;;;;;;5032176;28;20083;-55
2021/12/17 13:39:46;;;;;;;8.45;1.73;;;;;;;;;;5022686;28;20026;-56
2021/12/17 13:42:22;;;;;;;12.15;2.08;;;;;;;;;;5031733;28;20871;-56
2021/12/17 13:44:52;;;;;;;9.85;2.00;;;;;;;;;;5025388;28;20025;-56
2021/12/17 13:47:25;;;;;;;7.13;1.70;;;;;;;;;;5030572;28;20021;-56
2021/12/17 13:50:02;;;;;;;7.07;1.80;;;;;;;;;;5032630;28;20032;-58
2021/12/17 13:52:29;;;;;;;7.30;1.80;;;;;;;;;;5034733;28;20038;-58
2021/12/17 13:54:56;;;;;;;5.65;2.15;;;;;;;;;;5034527;28;20025;-58
2021/12/17 13:57:24;;;;;;;7.35;2.10;;;;;;;;;;5035455;28;20044;-58
2021/12/17 13:59:51;;;;;;;14.35;2.78;;;;;;;;;;5035557;28;20037;-58
2021/12/17 14:02:19;;;;;;;7.10;2.08;;;;;;;;;;5034479;28;20488;-57
2021/12/17 14:05:02;;;;;;;9.70;2.30;;;;;;;;;;5030801;28;20405;-56
2021/12/17 14:07:30;;;;;;;5.30;1.40;;;;;;;;;;5029921;28;20025;-57
2021/12/17 14:09:57;;;;;;;8.57;2.35;;;;;;;;;;5033853;28;20339;-58
2021/12/17 14:12:30;;;;;;;5.90;2.42;;;;;;;;;;5040314;28;20026;-55
2021/12/17 14:15:05;;;;;;;8.90;2.42;;;;;;;;;;5042630;28;20045;-57
2021/12/17 14:17:44;;;;;;;8.80;2.42;;;;;;;;;;5035383;28;20044;-58
2021/12/17 14:20:14;;;;;;;6.47;2.38;;;;;;;;;;5027864;28;20104;-58
2021/12/17 14:22:42;;;;;;;8.75;2.13;;;;;;;;;;5034883;28;20083;-58
2021/12/17 14:25:23;;;;;;;4.68;1.80;;;;;;;;;;5034090;28;20018;-56
2021/12/17 14:27:50;;;;;;;6.70;1.73;;;;;;;;;;5031602;28;20048;-58
2021/12/17 14:30:16;;;;;;;10.57;2.70;;;;;;;;;;5032234;28;20022;-57
2021/12/17 14:32:49;;;;;;;5.57;2.40;;;;;;;;;;5040305;28;20524;-59
2021/12/17 14:35:15;;;;;;;5.40;2.40;;;;;;;;;;5036309;28;20050;-58
2021/12/17 14:37:47;;;;;;;6.45;2.50;;;;;;;;;;5037089;28;20036;-57
2021/12/17 14:40:24;;;;;;;6.18;2.38;;;;;;;;;;5039870;28;20422;-55
2021/12/17 14:42:52;;;;;;;13.63;2.90;;;;;;;;;;5035333;28;20037;-55
2021/12/17 14:45:21;;;;;;;4.90;1.42;;;;;;;;;;5038616;28;20036;-56
2021/12/17 14:47:55;;;;;;;6.25;1.88;;;;;;;;;;5028702;28;20045;-57
2021/12/17 15:00:06;;;;;;;6.38;1.75;;;;;;;;;;5037397;28;20587;-57
2021/12/17 15:01:39;;;;;;;6.63;2.65;;;;;;;;;;5037766;28;20045;-53
2021/12/17 15:04:06;;;;;;;9.05;2.67;;;;;;;;;;5031368;28;20052;-53
2021/12/17 15:06:32;;;;;;;6.50;1.60;;;;;;;;;;5032451;28;20026;-57
2021/12/17 15:08:59;;;;;;;4.10;1.50;;;;;;;;;;5033901;28;20029;-58
2021/12/17 15:11:36;;;;;;;5.53;1.58;;;;;;;;;;5037823;28;20021;-58
2021/12/17 15:14:02;;;;;;;5.57;1.80;;;;;;;;;;5037175;28;20465;-58
2021/12/17 15:16:28;;;;;;;5.47;1.58;;;;;;;;;;5036758;28;20072;-57
2021/12/17 15:18:54;;;;;;;3.22;1.55;;;;;;;;;;5039157;28;20055;-56
2021/12/17 15:21:20;;;;;;;8.27;2.22;;;;;;;;;;5031030;28;20558;-56
2021/12/17 15:23:46;;;;;;;2.35;1.55;;;;;;;;;;5038952;28;20021;-58
2021/12/17 15:26:12;;;;;;;4.78;1.55;;;;;;;;;;5037440;28;20068;-58
2021/12/17 15:28:38;;;;;;;8.80;1.65;;;;;;;;;;5040652;28;20124;-56
2021/12/17 15:31:06;;;;;;;4.20;1.65;;;;;;;;;;5036165;28;20026;-57
2021/12/17 15:33:34;;;;;;;6.18;2.00;;;;;;;;;;5041739;28;21146;-55
2021/12/17 15:36:00;;;;;;;6.90;1.83;;;;;;;;;;5039376;28;20041;-56
2021/12/17 15:38:26;;;;;;;3.17;1.65;;;;;;;;;;5040465;28;20031;-57
2021/12/17 15:40:52;;;;;;;3.53;1.40;;;;;;;;;;5040284;28;20033;-56
2021/12/17 15:43:19;;;;;;;8.48;1.52;;;;;;;;;;5041833;28;20385;-58
2021/12/17 15:45:46;;;;;;;5.60;1.52;;;;;;;;;;5042275;28;20061;-57
2021/12/17 15:48:13;;;;;;;5.07;1.27;;;;;;;;;;5046060;28;20052;-58
2021/12/17 15:50:39;;;;;;;5.35;2.10;;;;;;;;;;5042428;28;20033;-56
2021/12/17 15:53:05;;;;;;;8.10;1.60;;;;;;;;;;5048783;28;20033;-56
2021/12/17 15:55:31;;;;;;;3.67;1.20;;;;;;;;;;5040866;28;20085;-59
2021/12/17 15:57:58;;;;;;;8.35;2.72;;;;;;;;;;5048073;28;20135;-55
2021/12/17 16:00:28;;;;;;;5.88;1.73;;;;;;;;;;5041033;28;20548;-53
2021/12/17 16:02:55;;;;;;;8.43;2.10;;;;;;;;;;5040347;28;20033;-53
2021/12/17 16:05:23;;;;;;;5.22;1.55;;;;;;;;;;5035932;28;20109;-51
2021/12/17 16:07:51;;;;;;;4.65;1.77;;;;;;;;;;5036564;28;20477;-53
2021/12/17 16:11:08;;;;;;;5.55;1.50;;;;;;;;;;5040839;28;20028;-56
2021/12/17 16:18:56;;;;;;;7.97;2.35;;;;;;;;;;5039907;28;20040;-54
2021/12/17 16:21:23;;;;;;;11.05;1.55;;;;;;;;;;5033477;28;20056;-53
2021/12/17 16:23:50;;;;;;;6.85;1.85;;;;;;;;;;5023802;28;20049;-56
2021/12/17 16:26:18;;;;;;;6.60;1.48;;;;;;;;;;5025298;28;20049;-54
2021/12/17 16:28:46;;;;;;;2.95;1.30;;;;;;;;;;5035119;28;20543;-52
2021/12/17 16:31:14;;;;;;;3.50;1.50;;;;;;;;;;5026748;28;20061;-54
2021/12/17 16:33:41;;;;;;;6.05;2.35;;;;;;;;;;5032436;28;20183;-54
2021/12/17 16:36:07;;;;;;;4.85;1.90;;;;;;;;;;5034776;28;20022;-50
2021/12/17 16:38:34;;;;;;;4.25;1.73;;;;;;;;;;5035917;28;20401;-52
2021/12/17 16:41:01;;;;;;;8.18;1.67;;;;;;;;;;5035457;28;20022;-51
2021/12/17 16:43:27;;;;;;;2.25;1.20;;;;;;;;;;5035727;28;20129;-53
2021/12/17 16:46:11;;;;;;;5.57;1.58;;;;;;;;;;5035800;28;20100;-54
2021/12/17 16:48:37;;;;;;;;;;;;;;;;;;5035267;28;20028;-50
2021/12/17 16:51:03;;;;;;;4.72;1.73;;;;;;;;;;5033441;28;19960;-56
2021/12/17 16:53:29;;;;;;;4.70;2.25;;;;;;;;;;5023095;28;20137;-57
2021/12/17 16:55:55;;;;;;;7.95;1.70;;;;;;;;;;5033133;28;20448;-53
2021/12/17 16:58:21;;;;;;;4.22;1.90;;;;;;;;;;5026591;28;20593;-58
2021/12/17 17:00:47;;;;;;;6.07;1.75;;;;;;;;;;5022963;28;20030;-57
2021/12/17 17:03:14;;;;;;;6.95;2.33;;;;;;;;;;5018614;28;20029;-55
2021/12/17 17:05:40;;;;;;;7.97;2.38;;;;;;;;;;5034970;28;20036;-56
2021/12/17 17:08:06;;;;;;;6.85;1.85;;;;;;;;;;5027881;28;20401;-55
2021/12/17 17:10:34;;;;;;;3.10;1.60;;;;;;;;;;5018752;28;20034;-56
2021/12/17 17:13:03;;;;;;;10.15;2.00;;;;;;;;;;5033133;28;20025;-58
2021/12/17 17:15:34;;;;;;;4.53;1.98;;;;;;;;;;5028134;28;20033;-58
2021/12/17 17:18:00;;;;;;;5.43;1.90;;;;;;;;;;5034034;28;20497;-55